Terminal Aerodrome Forecast
Issued by NWS

Home | Current Version | Previous Version | Graphics & Text | Print | Product List | Glossary On
Versions: 1 2 3 4 5 6 7 8 9 10 11 12 13 14 15 16 17 18 19 20
000
FTUS43 KABR 251700
TAFATY
TAF
KATY 251726Z 2518/2618 10010KT 5SM BR OVC007
     FM252000 13013KT P6SM OVC016
     FM252300 10014KT P6SM OVC030
     FM260200 11006KT P6SM SCT035
     FM261300 11013KT P6SM FEW050=

USA.gov is the U.S. government's official web portal to all federal, state and local government web resources and services.